createdAt,value
2023-02-07T00:02:06.462Z,0.50
2023-02-07T00:04:34.814Z,0.40
2023-02-07T00:07:04.714Z,0.40
2023-02-07T00:09:33.102Z,0.30
2023-02-07T00:12:03.018Z,0.30
2023-02-07T00:14:31.345Z,0.30
2023-02-07T00:16:59.605Z,0.30
2023-02-07T00:19:27.843Z,0.30
2023-02-07T00:21:56.100Z,0.30
2023-02-07T00:24:25.736Z,0.30
2023-02-07T00:26:55.412Z,0.30
2023-02-07T00:29:24.016Z,0.30
2023-02-07T00:31:53.121Z,0.20
2023-02-07T00:34:21.726Z,0.20
2023-02-07T00:36:50.030Z,0.20
2023-02-07T00:39:19.031Z,0.20
2023-02-07T00:41:49.214Z,0.20
2023-02-07T00:44:17.552Z,0.20
2023-02-07T00:46:46.673Z,0.20
2023-02-07T00:49:16.117Z,0.20
2023-02-07T00:51:44.414Z,0.20
2023-02-07T00:54:12.696Z,0.20
2023-02-07T00:56:40.960Z,0.20
2023-02-07T00:59:10.536Z,0.20
2023-02-07T01:01:38.951Z,0.10
2023-02-07T01:04:07.508Z,0.20
2023-02-07T01:06:37.172Z,0.10
2023-02-07T01:09:07.341Z,0.10
2023-02-07T01:11:35.831Z,0.20
2023-02-07T01:14:04.535Z,0.20
2023-02-07T01:16:36.124Z,0.20
2023-02-07T01:19:07.073Z,0.20
2023-02-07T01:21:35.550Z,0.20
2023-02-07T01:24:05.633Z,0.20
2023-02-07T01:26:36.477Z,0.30
2023-02-07T01:29:05.568Z,0.30
2023-02-07T01:31:35.393Z,0.40
2023-02-07T01:34:05.757Z,0.30
2023-02-07T01:36:34.613Z,0.30
2023-02-07T01:39:03.949Z,0.20
2023-02-07T01:41:36.260Z,0.20
2023-02-07T01:44:07.483Z,0.20
2023-02-07T01:46:37.597Z,0.20
2023-02-07T01:49:09.932Z,0.20
2023-02-07T01:51:40.012Z,0.20
2023-02-07T01:54:11.212Z,0.10
2023-02-07T01:56:43.922Z,0.20
2023-02-07T01:59:12.870Z,0.10
2023-02-07T02:01:44.682Z,0.10
2023-02-07T02:04:12.983Z,0.00
2023-02-07T02:06:42.149Z,0.00
2023-02-07T02:09:13.625Z,0.00
2023-02-07T02:12:06.676Z,0.00
2023-02-07T02:14:48.835Z,-0.10
2023-02-07T02:17:28.249Z,-0.10
2023-02-07T02:20:38.659Z,-0.10
2023-02-07T02:23:21.235Z,-0.20
2023-02-07T02:26:17.880Z,-0.30
2023-02-07T02:29:19.618Z,-0.30
2023-02-07T02:32:24.745Z,-0.30
2023-02-07T02:34:59.686Z,-0.30
2023-02-07T02:37:37.731Z,-0.30
2023-02-07T02:40:11.426Z,-0.30
2023-02-07T02:42:44.918Z,-0.30
2023-02-07T02:45:17.766Z,-0.40
2023-02-07T02:47:49.668Z,-0.40
2023-02-07T02:50:23.430Z,-0.50
2023-02-07T02:52:51.685Z,-0.60
2023-02-07T02:55:48.803Z,-0.60
2023-02-07T02:58:29.215Z,-0.60
2023-02-07T03:01:09.007Z,-0.70
2023-02-07T03:03:58.586Z,-0.70
2023-02-07T03:06:38.418Z,-0.60
2023-02-07T03:09:21.326Z,-0.60
2023-02-07T03:11:57.028Z,-0.60
2023-02-07T03:14:34.398Z,-0.60
2023-02-07T03:17:15.124Z,-0.70
2023-02-07T03:19:49.024Z,-0.70
2023-02-07T03:22:23.222Z,-0.70
2023-02-07T03:24:55.204Z,-0.80
2023-02-07T03:27:27.345Z,-0.80
2023-02-07T03:29:59.153Z,-0.80
2023-02-07T03:32:31.011Z,-0.90
2023-02-07T03:35:02.529Z,-0.90
2023-02-07T03:37:35.209Z,-1.00
2023-02-07T03:40:04.643Z,-0.90
2023-02-07T03:42:37.497Z,-1.00
2023-02-07T03:45:09.251Z,-0.90
2023-02-07T03:47:37.485Z,-0.90
2023-02-07T03:50:06.825Z,-0.80
2023-02-07T03:52:36.390Z,-0.80
2023-02-07T03:55:04.923Z,-0.80
2023-02-07T03:57:33.098Z,-0.90
2023-02-07T04:00:01.463Z,-0.90
2023-02-07T04:02:29.684Z,-1.00
2023-02-07T04:04:58.017Z,-0.90
2023-02-07T04:07:26.296Z,-1.00
2023-02-07T04:09:55.909Z,-1.00
2023-02-07T04:12:24.308Z,-1.10
2023-02-07T04:14:52.582Z,-1.00
2023-02-07T04:17:20.819Z,-1.10
2023-02-07T04:19:49.101Z,-1.10
2023-02-07T04:22:17.462Z,-1.20
2023-02-07T04:24:45.691Z,-1.20
2023-02-07T04:27:15.687Z,-1.30
2023-02-07T04:29:43.878Z,-1.20
2023-02-07T04:32:12.178Z,-1.40
2023-02-07T04:34:40.431Z,-1.40
2023-02-07T04:37:08.786Z,-1.40
2023-02-07T04:39:37.084Z,-1.40
2023-02-07T04:42:05.836Z,-1.40
2023-02-07T04:44:35.644Z,-1.50
2023-02-07T04:47:03.857Z,-1.50
2023-02-07T04:49:34.279Z,-1.50
2023-02-07T04:52:03.129Z,-1.50
2023-02-07T04:54:31.347Z,-1.50
2023-02-07T04:56:59.564Z,-1.50
2023-02-07T04:59:27.881Z,-1.60
2023-02-07T05:01:57.619Z,-1.50
2023-02-07T05:04:26.094Z,-1.50
2023-02-07T05:06:54.456Z,-1.50
2023-02-07T05:09:22.983Z,-1.60
2023-02-07T05:11:51.183Z,-1.50
2023-02-07T05:14:19.412Z,-1.50
2023-02-07T05:16:47.642Z,-1.60
2023-02-07T05:19:17.506Z,-1.60
2023-02-07T05:21:45.849Z,-1.60
2023-02-07T05:24:14.111Z,-1.70
2023-02-07T05:26:42.306Z,-1.70
2023-02-07T05:29:10.548Z,-1.70
2023-02-07T05:31:56.528Z,-1.70
2023-02-07T05:34:26.342Z,-1.70
2023-02-07T05:36:54.547Z,-1.70
2023-02-07T05:39:22.974Z,-1.70
2023-02-07T05:41:51.234Z,-1.70
2023-02-07T05:44:19.821Z,-1.80
2023-02-07T05:46:48.183Z,-1.80
2023-02-07T05:49:16.470Z,-1.70
2023-02-07T05:51:46.247Z,-1.70
2023-02-07T05:54:14.441Z,-1.80
2023-02-07T05:56:42.650Z,-1.70
2023-02-07T05:59:10.941Z,-1.70
2023-02-07T06:01:39.197Z,-1.80
2023-02-07T06:04:07.521Z,-1.70
2023-02-07T06:06:35.792Z,-1.80
2023-02-07T06:09:06.013Z,-1.90
2023-02-07T06:11:34.242Z,-1.90
2023-02-07T06:14:02.460Z,-2.00
2023-02-07T06:16:30.801Z,-2.00
2023-02-07T06:18:59.168Z,-2.00
2023-02-07T06:21:37.668Z,-2.00
2023-02-07T06:24:15.120Z,-1.90
2023-02-07T06:26:43.794Z,-1.90
2023-02-07T06:29:12.031Z,-1.90
2023-02-07T06:31:40.300Z,-1.90
2023-02-07T06:34:08.525Z,-1.90
2023-02-07T06:36:36.773Z,-2.00
2023-02-07T06:39:05.765Z,-2.00
2023-02-07T06:41:36.452Z,-1.90
2023-02-07T06:44:04.962Z,-2.00
2023-02-07T06:46:33.320Z,-1.90
2023-02-07T06:49:01.550Z,-1.90
2023-02-07T06:51:29.809Z,-1.90
2023-02-07T06:53:58.086Z,-1.90
2023-02-07T06:56:26.371Z,-1.90
2023-02-07T06:58:56.013Z,-1.80
2023-02-07T07:01:24.340Z,-1.80
2023-02-07T07:03:52.699Z,-1.80
2023-02-07T07:06:20.974Z,-1.90
2023-02-07T07:08:49.933Z,-1.80
2023-02-07T07:11:18.281Z,-1.80
2023-02-07T07:13:46.849Z,-1.80
2023-02-07T07:16:16.564Z,-1.70
2023-02-07T07:18:44.847Z,-1.80
2023-02-07T07:21:13.795Z,-1.80
2023-02-07T07:23:43.882Z,-1.80
2023-02-07T07:26:12.236Z,-1.90
2023-02-07T07:28:40.735Z,-1.70
2023-02-07T07:31:09.864Z,-1.70
2023-02-07T07:33:39.601Z,-1.60
2023-02-07T07:36:09.816Z,-1.60
2023-02-07T07:38:38.388Z,-1.60
2023-02-07T07:41:07.211Z,-1.60
2023-02-07T07:43:35.602Z,-1.60
2023-02-07T07:46:03.984Z,-1.50
2023-02-07T07:48:32.323Z,-1.50
2023-02-07T07:51:02.073Z,-1.50
2023-02-07T07:53:30.269Z,-1.50
2023-02-07T07:55:58.924Z,-1.40
2023-02-07T07:58:28.886Z,-1.30
2023-02-07T08:00:57.240Z,-1.30
2023-02-07T08:03:25.967Z,-1.20
2023-02-07T08:05:55.031Z,-1.20
2023-02-07T08:08:24.639Z,-1.20
2023-02-07T08:10:54.282Z,-1.20
2023-02-07T08:13:23.348Z,-1.20
2023-02-07T08:15:51.631Z,-1.20
2023-02-07T08:18:19.938Z,-1.20
2023-02-07T08:20:50.125Z,-1.10
2023-02-07T08:23:18.811Z,-1.00
2023-02-07T08:25:49.972Z,-1.00
2023-02-07T08:28:19.519Z,-1.00
2023-02-07T08:30:48.300Z,-0.80
2023-02-07T08:33:18.817Z,-0.80
2023-02-07T08:35:47.192Z,-0.80
2023-02-07T08:38:15.365Z,-0.80
2023-02-07T08:40:43.812Z,-0.70
2023-02-07T08:43:14.854Z,-0.70
2023-02-07T08:45:47.366Z,-0.60
2023-02-07T08:48:16.416Z,-0.50
2023-02-07T08:50:44.616Z,-0.60
2023-02-07T08:53:13.294Z,-0.60
2023-02-07T08:55:42.037Z,-0.50
2023-02-07T08:58:10.630Z,-0.50
2023-02-07T09:00:40.806Z,-0.40
2023-02-07T09:03:09.417Z,-0.40
2023-02-07T09:05:37.653Z,-0.30
2023-02-07T09:08:06.367Z,-0.20
2023-02-07T09:10:34.636Z,-0.20
2023-02-07T09:13:03.422Z,-0.10
2023-02-07T09:15:31.839Z,-0.10
2023-02-07T09:18:01.405Z,-0.10
2023-02-07T09:20:29.799Z,0.10
2023-02-07T09:23:15.374Z,0.10
2023-02-07T09:25:43.729Z,0.20
2023-02-07T09:28:12.243Z,0.20
2023-02-07T09:30:42.738Z,0.30
2023-02-07T09:33:13.852Z,0.30
2023-02-07T09:35:43.764Z,0.30
2023-02-07T09:38:14.685Z,0.30
2023-02-07T09:40:44.180Z,0.50
2023-02-07T09:43:22.137Z,0.60
2023-02-07T09:45:57.301Z,0.60
2023-02-07T09:48:33.434Z,0.70
2023-02-07T09:51:04.284Z,0.80
2023-02-07T09:53:41.464Z,0.80
2023-02-07T09:56:11.792Z,0.90
2023-02-07T09:58:45.335Z,1.00
2023-02-07T10:01:17.584Z,1.00
2023-02-07T10:03:56.758Z,1.00
2023-02-07T10:06:28.234Z,1.10
2023-02-07T10:08:59.527Z,1.10
2023-02-07T10:11:43.714Z,1.10
2023-02-07T10:14:28.482Z,1.20
2023-02-07T10:17:16.600Z,1.30
2023-02-07T10:20:00.740Z,1.30
2023-02-07T10:22:37.109Z,1.40
2023-02-07T10:25:23.067Z,1.50
2023-02-07T10:28:01.819Z,1.60
2023-02-07T10:30:33.041Z,1.70
2023-02-07T10:33:09.314Z,1.60
2023-02-07T10:35:39.575Z,1.60
2023-02-07T10:38:18.803Z,1.70
2023-02-07T10:40:53.892Z,1.80
2023-02-07T10:43:29.189Z,1.90
2023-02-07T10:46:06.140Z,1.90
2023-02-07T10:48:35.502Z,1.90
2023-02-07T10:51:14.683Z,1.90
2023-02-07T10:53:56.155Z,2.00
2023-02-07T10:56:28.410Z,2.00
2023-02-07T10:58:58.179Z,2.10
2023-02-07T11:01:28.525Z,2.10
2023-02-07T11:03:57.365Z,2.20
2023-02-07T11:06:29.847Z,2.30
2023-02-07T11:09:21.573Z,2.30
2023-02-07T11:11:51.282Z,2.40
2023-02-07T11:14:26.537Z,2.50
2023-02-07T11:16:55.620Z,2.50
2023-02-07T11:19:26.466Z,2.60
2023-02-07T11:22:06.990Z,2.60
2023-02-07T11:24:38.069Z,2.60
2023-02-07T11:27:13.585Z,2.80
2023-02-07T11:29:49.753Z,2.80
2023-02-07T11:32:18.903Z,2.90
2023-02-07T11:34:50.888Z,2.90
2023-02-07T11:37:28.846Z,2.90
2023-02-07T11:40:15.965Z,2.90
2023-02-07T11:42:44.232Z,3.00
2023-02-07T11:45:16.031Z,3.00
2023-02-07T11:47:48.534Z,2.90
2023-02-07T11:50:21.938Z,3.00
2023-02-07T11:52:55.842Z,3.00
2023-02-07T11:55:27.937Z,3.10
2023-02-07T11:57:58.642Z,3.10
2023-02-07T12:00:29.622Z,3.00
2023-02-07T12:03:03.935Z,3.10
2023-02-07T12:05:36.800Z,3.10
2023-02-07T12:08:13.518Z,3.10
2023-02-07T12:10:45.545Z,3.20
2023-02-07T12:13:18.089Z,3.30
2023-02-07T12:15:51.538Z,3.30
2023-02-07T12:18:29.690Z,3.30
2023-02-07T12:21:03.428Z,3.30
2023-02-07T12:23:43.627Z,3.30
2023-02-07T12:26:21.148Z,3.30
2023-02-07T12:29:13.248Z,3.40
2023-02-07T12:31:50.640Z,3.50
2023-02-07T12:34:24.165Z,3.50
2023-02-07T12:36:57.460Z,3.60
2023-02-07T12:39:32.487Z,3.50
2023-02-07T12:42:12.332Z,3.50
2023-02-07T12:44:43.946Z,3.50
2023-02-07T12:47:24.635Z,3.60
2023-02-07T12:50:09.240Z,3.70
2023-02-07T12:52:51.330Z,3.70
2023-02-07T12:55:31.948Z,3.70
2023-02-07T12:58:14.461Z,3.70
2023-02-07T13:00:53.926Z,3.70
2023-02-07T13:03:32.760Z,3.70
2023-02-07T13:06:12.393Z,3.80
2023-02-07T13:08:52.377Z,3.80
2023-02-07T13:11:31.548Z,3.80
2023-02-07T13:14:12.090Z,3.80
2023-02-07T13:16:48.883Z,3.80
2023-02-07T13:19:25.446Z,3.80
2023-02-07T13:22:00.050Z,3.90
2023-02-07T13:24:29.852Z,4.00
2023-02-07T13:27:04.724Z,3.90
2023-02-07T13:29:36.443Z,3.90
2023-02-07T13:32:12.910Z,3.90
2023-02-07T13:34:46.261Z,3.90
2023-02-07T13:37:17.606Z,3.80
2023-02-07T13:39:56.043Z,4.00
2023-02-07T13:42:32.519Z,4.00
2023-02-07T13:45:05.527Z,4.00
2023-02-07T13:47:46.771Z,4.00
2023-02-07T13:50:33.031Z,4.00
2023-02-07T13:53:06.067Z,4.10
2023-02-07T13:55:38.512Z,4.10
2023-02-07T13:59:06.649Z,4.20
2023-02-07T14:01:36.672Z,4.20
2023-02-07T14:04:07.832Z,4.30
2023-02-07T14:06:39.065Z,4.30
2023-02-07T14:09:17.140Z,4.20
2023-02-07T14:11:47.423Z,4.30
2023-02-07T14:14:26.219Z,4.30
2023-02-07T14:16:56.358Z,4.20
2023-02-07T14:19:50.808Z,4.20
2023-02-07T14:22:31.235Z,4.30
2023-02-07T14:25:20.630Z,4.30
2023-02-07T14:28:19.737Z,4.30
2023-02-07T14:31:09.357Z,4.30
2023-02-07T14:33:40.506Z,4.30
2023-02-07T14:36:26.770Z,4.30
2023-02-07T14:39:04.896Z,4.40
2023-02-07T14:41:36.320Z,4.30
2023-02-07T14:44:10.284Z,4.30
2023-02-07T14:46:42.808Z,4.30
2023-02-07T14:49:17.794Z,4.20
2023-02-07T14:51:48.287Z,4.10
2023-02-07T14:54:23.518Z,4.20
2023-02-07T14:57:01.085Z,4.30
2023-02-07T14:59:34.596Z,4.40
2023-02-07T15:02:44.246Z,4.40
2023-02-07T15:05:23.938Z,4.40
2023-02-07T15:08:07.810Z,4.50
2023-02-07T15:10:39.912Z,4.40
2023-02-07T15:13:20.837Z,4.40
2023-02-07T15:15:53.387Z,4.40
2023-02-07T15:18:24.163Z,4.40
2023-02-07T15:20:58.186Z,4.40
2023-02-07T15:23:29.732Z,4.40
2023-02-07T15:25:59.492Z,4.40
2023-02-07T15:28:29.507Z,4.40
2023-02-07T15:31:00.521Z,4.40
2023-02-07T15:33:36.587Z,4.40
2023-02-07T15:36:08.516Z,4.30
2023-02-07T15:38:36.753Z,4.20
2023-02-07T15:41:05.298Z,4.20
2023-02-07T15:43:35.503Z,4.20
2023-02-07T15:46:09.425Z,4.20
2023-02-07T15:48:50.248Z,4.20
2023-02-07T15:51:23.359Z,4.20
2023-02-07T15:53:53.821Z,4.20
2023-02-07T15:56:22.338Z,4.20
2023-02-07T15:58:51.467Z,4.10
2023-02-07T16:01:25.294Z,4.10
2023-02-07T16:03:57.113Z,4.00
2023-02-07T16:06:28.438Z,4.00
2023-02-07T16:08:58.487Z,3.90
2023-02-07T16:11:39.732Z,3.90
2023-02-07T16:14:25.404Z,3.80
2023-02-07T16:16:55.592Z,3.80
2023-02-07T16:19:28.065Z,3.80
2023-02-07T16:22:03.867Z,3.70
2023-02-07T16:24:35.595Z,3.60
2023-02-07T16:27:05.246Z,3.60
2023-02-07T16:29:35.768Z,3.50
2023-02-07T16:32:04.407Z,3.50
2023-02-07T16:34:32.629Z,3.50
2023-02-07T16:37:02.444Z,3.40
2023-02-07T16:39:30.675Z,3.40
2023-02-07T16:42:05.967Z,3.40
2023-02-07T16:44:36.148Z,3.30
2023-02-07T16:47:04.918Z,3.20
2023-02-07T16:49:33.919Z,3.20
2023-02-07T16:52:03.532Z,3.10
2023-02-07T16:54:31.809Z,3.00
2023-02-07T16:57:03.799Z,2.80
2023-02-07T16:59:32.428Z,2.70
2023-02-07T17:02:00.801Z,2.60
2023-02-07T17:04:29.365Z,2.60
2023-02-07T17:06:57.636Z,2.60
2023-02-07T17:09:27.424Z,2.60
2023-02-07T17:11:56.286Z,2.60
2023-02-07T17:14:24.545Z,2.60
2023-02-07T17:16:52.838Z,2.50
2023-02-07T17:19:23.094Z,2.50
2023-02-07T17:21:52.754Z,2.40
2023-02-07T17:24:21.192Z,2.30
2023-02-07T17:26:54.378Z,2.20
2023-02-07T17:29:22.741Z,2.00
2023-02-07T17:31:51.208Z,1.90
2023-02-07T17:34:19.440Z,1.80
2023-02-07T17:36:49.780Z,1.70
2023-02-07T17:39:19.873Z,1.60
2023-02-07T17:41:48.391Z,1.50
2023-02-07T17:44:21.358Z,1.50
2023-02-07T17:46:49.754Z,1.50
2023-02-07T17:49:18.802Z,1.40
2023-02-07T17:51:47.312Z,1.30
2023-02-07T17:54:15.712Z,1.20
2023-02-07T17:56:43.931Z,1.20
2023-02-07T17:59:21.403Z,1.20
2023-02-07T18:01:49.626Z,1.10
2023-02-07T18:04:17.842Z,1.10
2023-02-07T18:06:46.124Z,1.10
2023-02-07T18:09:18.509Z,1.10
2023-02-07T18:11:46.887Z,1.10
2023-02-07T18:14:15.054Z,1.00
2023-02-07T18:16:44.646Z,0.90
2023-02-07T18:19:17.327Z,0.80
2023-02-07T18:21:45.743Z,0.80
2023-02-07T18:24:14.343Z,0.70
2023-02-07T18:26:43.023Z,0.70
2023-02-07T18:29:11.198Z,0.70
2023-02-07T18:31:39.720Z,0.70
2023-02-07T18:34:09.343Z,0.70
2023-02-07T18:36:40.402Z,0.70
2023-02-07T18:39:09.006Z,0.60
2023-02-07T18:41:37.534Z,0.60
2023-02-07T18:44:06.700Z,0.60
2023-02-07T18:46:35.126Z,0.50
2023-02-07T18:49:03.405Z,0.50
2023-02-07T18:51:33.283Z,0.40
2023-02-07T18:54:01.551Z,0.40
2023-02-07T18:56:29.755Z,0.40
2023-02-07T18:58:58.920Z,0.50
2023-02-07T19:01:30.408Z,0.50
2023-02-07T19:04:01.517Z,0.50
2023-02-07T19:06:33.415Z,0.50
2023-02-07T19:09:02.043Z,0.40
2023-02-07T19:11:30.483Z,0.40
2023-02-07T19:13:58.951Z,0.30
2023-02-07T19:16:27.216Z,0.20
2023-02-07T19:18:57.792Z,0.20
2023-02-07T19:21:27.681Z,0.20
2023-02-07T19:23:59.261Z,0.20
2023-02-07T19:26:27.491Z,0.20
2023-02-07T19:28:55.700Z,0.20
2023-02-07T19:31:26.469Z,0.20
2023-02-07T19:33:54.735Z,0.10
2023-02-07T19:36:23.545Z,0.10
2023-02-07T19:38:53.790Z,0.00
2023-02-07T19:41:24.140Z,0.00
2023-02-07T19:43:52.662Z,0.00
2023-02-07T19:46:22.024Z,0.00
2023-02-07T19:48:50.710Z,-0.10
2023-02-07T19:51:22.344Z,-0.10
2023-02-07T19:53:53.251Z,-0.10
2023-02-07T19:56:24.382Z,-0.10
2023-02-07T19:58:54.078Z,-0.30
2023-02-07T20:01:25.055Z,-0.30
2023-02-07T20:03:55.559Z,-0.30
2023-02-07T20:06:28.496Z,-0.20
2023-02-07T20:08:57.739Z,-0.30
2023-02-07T20:11:27.709Z,-0.20
2023-02-07T20:13:58.379Z,-0.30
2023-02-07T20:16:27.561Z,-0.30
2023-02-07T20:18:56.416Z,-0.30
2023-02-07T20:21:27.461Z,-0.20
2023-02-07T20:23:57.234Z,-0.20
2023-02-07T20:26:30.432Z,-0.30
2023-02-07T20:29:01.354Z,-0.30
2023-02-07T20:31:32.139Z,-0.40
2023-02-07T20:34:02.170Z,-0.40
2023-02-07T20:36:31.834Z,-0.40
2023-02-07T20:39:02.124Z,-0.40
2023-02-07T20:41:35.961Z,-0.40
2023-02-07T20:44:06.419Z,-0.40
2023-02-07T20:46:36.572Z,-0.50
2023-02-07T20:49:07.075Z,-0.50
2023-02-07T20:51:35.816Z,-0.50
2023-02-07T20:54:05.834Z,-0.50
2023-02-07T20:56:37.224Z,-0.50
2023-02-07T20:59:05.757Z,-0.50
2023-02-07T21:01:35.332Z,-0.60
2023-02-07T21:04:05.602Z,-0.60
2023-02-07T21:06:35.209Z,-0.60
2023-02-07T21:09:05.748Z,-0.60
2023-02-07T21:11:37.247Z,-0.60
2023-02-07T21:14:07.744Z,-0.70
2023-02-07T21:16:36.288Z,-0.70
2023-02-07T21:19:04.599Z,-0.70
2023-02-07T21:21:33.201Z,-0.70
2023-02-07T21:24:01.590Z,-0.70
2023-02-07T21:26:30.026Z,-0.70
2023-02-07T21:29:00.966Z,-0.70
2023-02-07T21:31:31.027Z,-0.80
2023-02-07T21:33:59.798Z,-0.70
2023-02-07T21:36:29.696Z,-0.80
2023-02-07T21:39:00.120Z,-0.80
2023-02-07T21:41:30.333Z,-0.80
2023-02-07T21:44:01.075Z,-0.90
2023-02-07T21:46:32.713Z,-0.90
2023-02-07T21:49:02.576Z,-0.80
2023-02-07T21:51:32.918Z,-0.80
2023-02-07T21:54:02.729Z,-0.90
2023-02-07T21:56:33.015Z,-0.90
2023-02-07T21:59:04.260Z,-0.80
2023-02-07T22:01:33.709Z,-0.90
2023-02-07T22:04:03.044Z,-0.90
2023-02-07T22:06:31.853Z,-0.90
2023-02-07T22:09:01.739Z,-0.90
2023-02-07T22:11:32.557Z,-0.90
2023-02-07T22:14:02.449Z,-0.90
2023-02-07T22:16:32.070Z,-0.90
2023-02-07T22:19:02.148Z,-0.90
2023-02-07T22:21:31.709Z,-0.90
2023-02-07T22:24:00.610Z,-1.00
2023-02-07T22:26:29.547Z,-1.00
2023-02-07T22:28:59.147Z,-1.00
2023-02-07T22:31:30.268Z,-1.10
2023-02-07T22:34:01.561Z,-1.20
2023-02-07T22:36:32.015Z,-1.20
2023-02-07T22:39:01.189Z,-1.30
2023-02-07T22:41:29.836Z,-1.30
2023-02-07T22:43:58.695Z,-1.30
2023-02-07T22:46:28.869Z,-1.40
2023-02-07T22:48:57.767Z,-1.30
2023-02-07T22:51:28.122Z,-1.40
2023-02-07T22:53:59.647Z,-1.30
2023-02-07T22:56:28.787Z,-1.30
2023-02-07T22:58:57.214Z,-1.20
2023-02-07T23:01:29.853Z,-1.20
2023-02-07T23:03:58.651Z,-1.10
2023-02-07T23:06:27.560Z,-1.20
2023-02-07T23:08:56.409Z,-1.30
2023-02-07T23:11:25.644Z,-1.40
2023-02-07T23:13:55.376Z,-1.40
2023-02-07T23:16:26.654Z,-1.40
2023-02-07T23:18:57.761Z,-1.40
2023-02-07T23:21:27.525Z,-1.40
2023-02-07T23:23:57.178Z,-1.40
2023-02-07T23:26:26.627Z,-1.40
2023-02-07T23:28:55.021Z,-1.50
2023-02-07T23:31:25.460Z,-1.50
2023-02-07T23:33:55.568Z,-1.50
2023-02-07T23:36:24.271Z,-1.50
2023-02-07T23:38:52.553Z,-1.50
2023-02-07T23:41:21.034Z,-1.50
2023-02-07T23:43:49.457Z,-1.40
2023-02-07T23:46:18.447Z,-1.40
2023-02-07T23:48:47.225Z,-1.50
2023-02-07T23:51:18.737Z,-1.50
2023-02-07T23:53:48.125Z,-1.50
2023-02-07T23:56:17.895Z,-1.60
2023-02-07T23:58:47.162Z,-1.60
